sensor_id;sensor_type;location;lat;lon;timestamp;temperature;humidity
1329;DHT22;658;48.820;9.354;2022-11-15T00:00:12;21.60;50.30
1329;DHT22;658;48.820;9.354;2022-11-15T00:04:13;21.60;50.20
1329;DHT22;658;48.820;9.354;2022-11-15T00:08:13;21.60;50.20
1329;DHT22;658;48.820;9.354;2022-11-15T00:12:14;21.60;50.20
1329;DHT22;658;48.820;9.354;2022-11-15T00:16:14;21.60;50.20
1329;DHT22;658;48.820;9.354;2022-11-15T00:20:18;21.60;50.20
1329;DHT22;658;48.820;9.354;2022-11-15T00:24:19;21.60;50.30
1329;DHT22;658;48.820;9.354;2022-11-15T00:28:19;21.60;50.20
1329;DHT22;658;48.820;9.354;2022-11-15T00:32:20;21.60;50.20
1329;DHT22;658;48.820;9.354;2022-11-15T00:36:21;21.60;50.20
1329;DHT22;658;48.820;9.354;2022-11-15T00:40:21;21.60;50.20
1329;DHT22;658;48.820;9.354;2022-11-15T00:44:22;21.60;50.20
1329;DHT22;658;48.820;9.354;2022-11-15T00:48:22;21.60;50.20
1329;DHT22;658;48.820;9.354;2022-11-15T00:52:23;21.60;50.20
1329;DHT22;658;48.820;9.354;2022-11-15T00:56:23;21.60;50.20
1329;DHT22;658;48.820;9.354;2022-11-15T01:00:24;21.60;50.20
1329;DHT22;658;48.820;9.354;2022-11-15T01:04:25;21.50;50.10
1329;DHT22;658;48.820;9.354;2022-11-15T01:08:25;21.60;50.20
1329;DHT22;658;48.820;9.354;2022-11-15T01:12:26;21.60;50.10
1329;DHT22;658;48.820;9.354;2022-11-15T01:16:26;21.50;50.10
1329;DHT22;658;48.820;9.354;2022-11-15T01:20:27;21.50;50.10
1329;DHT22;658;48.820;9.354;2022-11-15T01:24:28;21.50;50.10
1329;DHT22;658;48.820;9.354;2022-11-15T01:28:34;21.50;50.20
1329;DHT22;658;48.820;9.354;2022-11-15T01:32:34;21.50;50.10
1329;DHT22;658;48.820;9.354;2022-11-15T01:36:35;21.50;50.10
1329;DHT22;658;48.820;9.354;2022-11-15T01:40:35;21.50;50.10
1329;DHT22;658;48.820;9.354;2022-11-15T01:44:51;21.50;50.10
1329;DHT22;658;48.820;9.354;2022-11-15T01:48:58;21.50;50.10
1329;DHT22;658;48.820;9.354;2022-11-15T01:52:59;21.50;50.10
1329;DHT22;658;48.820;9.354;2022-11-15T01:57:04;21.50;50.10
1329;DHT22;658;48.820;9.354;2022-11-15T02:01:07;21.50;50.10
1329;DHT22;658;48.820;9.354;2022-11-15T02:05:08;21.50;50.10
1329;DHT22;658;48.820;9.354;2022-11-15T02:09:09;21.50;50.00
1329;DHT22;658;48.820;9.354;2022-11-15T02:13:10;21.50;50.00
1329;DHT22;658;48.820;9.354;2022-11-15T02:17:20;21.50;50.00
1329;DHT22;658;48.820;9.354;2022-11-15T02:21:39;21.50;50.00
1329;DHT22;658;48.820;9.354;2022-11-15T02:26:25;21.40;50.00
1329;DHT22;658;48.820;9.354;2022-11-15T02:39:14;21.40;50.00
1329;DHT22;658;48.820;9.354;2022-11-15T02:43:33;21.40;50.00
1329;DHT22;658;48.820;9.354;2022-11-15T02:47:57;21.40;50.00
1329;DHT22;658;48.820;9.354;2022-11-15T02:51:59;21.40;49.90
1329;DHT22;658;48.820;9.354;2022-11-15T02:56:00;21.40;50.00
1329;DHT22;658;48.820;9.354;2022-11-15T03:00:15;21.40;50.00
1329;DHT22;658;48.820;9.354;2022-11-15T03:12:30;21.40;49.90
1329;DHT22;658;48.820;9.354;2022-11-15T03:21:12;21.40;49.90
1329;DHT22;658;48.820;9.354;2022-11-15T03:25:21;21.40;49.90
1329;DHT22;658;48.820;9.354;2022-11-15T03:29:26;21.40;50.00
1329;DHT22;658;48.820;9.354;2022-11-15T03:33:28;21.40;49.90
1329;DHT22;658;48.820;9.354;2022-11-15T03:46:32;21.30;49.80
1329;DHT22;658;48.820;9.354;2022-11-15T03:50:34;21.30;49.80
1329;DHT22;658;48.820;9.354;2022-11-15T03:54:35;21.30;49.80
1329;DHT22;658;48.820;9.354;2022-11-15T03:58:35;21.30;49.80
1329;DHT22;658;48.820;9.354;2022-11-15T04:02:36;21.30;50.40
1329;DHT22;658;48.820;9.354;2022-11-15T04:06:38;21.30;49.90
1329;DHT22;658;48.820;9.354;2022-11-15T04:10:38;21.30;49.90
1329;DHT22;658;48.820;9.354;2022-11-15T04:14:39;21.30;49.80
1329;DHT22;658;48.820;9.354;2022-11-15T04:18:59;21.30;49.80
1329;DHT22;658;48.820;9.354;2022-11-15T04:23:21;21.30;49.90
1329;DHT22;658;48.820;9.354;2022-11-15T04:27:40;21.30;49.90
1329;DHT22;658;48.820;9.354;2022-11-15T04:31:41;21.30;49.90
1329;DHT22;658;48.820;9.354;2022-11-15T04:35:42;21.30;49.90
1329;DHT22;658;48.820;9.354;2022-11-15T04:39:43;21.30;49.80
1329;DHT22;658;48.820;9.354;2022-11-15T04:43:44;21.30;49.90
1329;DHT22;658;48.820;9.354;2022-11-15T04:47:45;21.30;49.80
1329;DHT22;658;48.820;9.354;2022-11-15T04:51:45;21.30;50.40
1329;DHT22;658;48.820;9.354;2022-11-15T04:55:46;21.30;49.90
1329;DHT22;658;48.820;9.354;2022-11-15T04:59:47;21.30;49.90
1329;DHT22;658;48.820;9.354;2022-11-15T05:03:47;21.30;49.90
1329;DHT22;658;48.820;9.354;2022-11-15T05:08:07;21.30;49.90
1329;DHT22;658;48.820;9.354;2022-11-15T05:12:07;21.30;49.80
1329;DHT22;658;48.820;9.354;2022-11-15T05:16:08;21.30;49.90
1329;DHT22;658;48.820;9.354;2022-11-15T05:20:09;21.30;49.80
1329;DHT22;658;48.820;9.354;2022-11-15T05:24:10;21.30;49.90
1329;DHT22;658;48.820;9.354;2022-11-15T05:28:11;21.20;50.30
1329;DHT22;658;48.820;9.354;2022-11-15T05:32:13;21.30;49.80
1329;DHT22;658;48.820;9.354;2022-11-15T05:36:37;21.30;49.80
1329;DHT22;658;48.820;9.354;2022-11-15T05:40:38;21.30;49.80
1329;DHT22;658;48.820;9.354;2022-11-15T05:44:42;21.30;49.70
1329;DHT22;658;48.820;9.354;2022-11-15T05:48:46;21.30;49.80
1329;DHT22;658;48.820;9.354;2022-11-15T05:52:49;21.30;49.70
1329;DHT22;658;48.820;9.354;2022-11-15T05:56:51;21.30;49.70
1329;DHT22;658;48.820;9.354;2022-11-15T06:00:51;21.30;49.90
1329;DHT22;658;48.820;9.354;2022-11-15T06:04:52;21.50;49.70
1329;DHT22;658;48.820;9.354;2022-11-15T06:08:53;21.60;49.50
1329;DHT22;658;48.820;9.354;2022-11-15T06:12:58;21.70;49.30
1329;DHT22;658;48.820;9.354;2022-11-15T06:16:58;21.70;49.00
1329;DHT22;658;48.820;9.354;2022-11-15T06:21:00;21.80;48.90
1329;DHT22;658;48.820;9.354;2022-11-15T06:25:01;21.80;48.80
1329;DHT22;658;48.820;9.354;2022-11-15T06:29:03;21.90;48.50
1329;DHT22;658;48.820;9.354;2022-11-15T06:33:05;21.90;48.50
1329;DHT22;658;48.820;9.354;2022-11-15T06:37:05;21.90;48.40
1329;DHT22;658;48.820;9.354;2022-11-15T06:41:08;22.00;48.50
1329;DHT22;658;48.820;9.354;2022-11-15T06:45:09;21.90;48.40
1329;DHT22;658;48.820;9.354;2022-11-15T06:49:10;22.00;48.60
1329;DHT22;658;48.820;9.354;2022-11-15T06:53:10;22.00;48.10
1329;DHT22;658;48.820;9.354;2022-11-15T06:57:11;22.10;48.60
1329;DHT22;658;48.820;9.354;2022-11-15T07:01:12;22.10;48.50
1329;DHT22;658;48.820;9.354;2022-11-15T07:05:14;22.20;48.60
1329;DHT22;658;48.820;9.354;2022-11-15T07:09:14;22.30;49.20
1329;DHT22;658;48.820;9.354;2022-11-15T07:13:15;22.40;48.50
1329;DHT22;658;48.820;9.354;2022-11-15T07:17:16;22.40;48.30
1329;DHT22;658;48.820;9.354;2022-11-15T07:21:16;22.50;48.30
1329;DHT22;658;48.820;9.354;2022-11-15T07:25:17;22.50;48.20
1329;DHT22;658;48.820;9.354;2022-11-15T07:29:18;22.60;48.20
1329;DHT22;658;48.820;9.354;2022-11-15T07:33:18;22.60;48.20
1329;DHT22;658;48.820;9.354;2022-11-15T07:37:19;22.70;48.20
1329;DHT22;658;48.820;9.354;2022-11-15T07:41:19;22.70;48.20
1329;DHT22;658;48.820;9.354;2022-11-15T07:45:22;22.80;48.10
1329;DHT22;658;48.820;9.354;2022-11-15T07:49:23;22.80;47.90
1329;DHT22;658;48.820;9.354;2022-11-15T07:53:23;22.90;48.00
1329;DHT22;658;48.820;9.354;2022-11-15T07:57:24;23.00;47.90
1329;DHT22;658;48.820;9.354;2022-11-15T08:01:24;23.10;47.80
1329;DHT22;658;48.820;9.354;2022-11-15T08:05:25;23.10;47.60
1329;DHT22;658;48.820;9.354;2022-11-15T08:09:26;23.20;47.30
1329;DHT22;658;48.820;9.354;2022-11-15T08:13:27;23.30;47.30
1329;DHT22;658;48.820;9.354;2022-11-15T08:17:27;23.40;47.20
1329;DHT22;658;48.820;9.354;2022-11-15T08:21:28;23.40;47.10
1329;DHT22;658;48.820;9.354;2022-11-15T08:25:30;23.50;47.10
1329;DHT22;658;48.820;9.354;2022-11-15T08:29:31;23.50;46.90
1329;DHT22;658;48.820;9.354;2022-11-15T08:33:32;23.50;46.80
1329;DHT22;658;48.820;9.354;2022-11-15T08:37:33;23.60;46.90
1329;DHT22;658;48.820;9.354;2022-11-15T08:41:36;23.60;46.80
1329;DHT22;658;48.820;9.354;2022-11-15T08:45:37;23.60;46.70
1329;DHT22;658;48.820;9.354;2022-11-15T08:49:37;23.70;46.90
1329;DHT22;658;48.820;9.354;2022-11-15T08:53:38;23.70;46.70
1329;DHT22;658;48.820;9.354;2022-11-15T08:57:39;23.70;46.70
1329;DHT22;658;48.820;9.354;2022-11-15T09:01:39;23.70;46.60
1329;DHT22;658;48.820;9.354;2022-11-15T09:05:40;23.70;46.70
1329;DHT22;658;48.820;9.354;2022-11-15T09:09:41;23.80;46.60
1329;DHT22;658;48.820;9.354;2022-11-15T09:13:42;24.00;46.40
1329;DHT22;658;48.820;9.354;2022-11-15T09:17:42;24.00;46.20
1329;DHT22;658;48.820;9.354;2022-11-15T09:21:44;24.10;46.10
1329;DHT22;658;48.820;9.354;2022-11-15T09:25:44;24.30;46.00
1329;DHT22;658;48.820;9.354;2022-11-15T09:29:45;24.30;45.90
1329;DHT22;658;48.820;9.354;2022-11-15T09:33:46;24.40;45.70
1329;DHT22;658;48.820;9.354;2022-11-15T09:37:46;24.40;45.60
1329;DHT22;658;48.820;9.354;2022-11-15T09:50:48;24.60;45.30
1329;DHT22;658;48.820;9.354;2022-11-15T09:54:51;24.70;45.20
1329;DHT22;658;48.820;9.354;2022-11-15T10:03:09;24.80;44.90
1329;DHT22;658;48.820;9.354;2022-11-15T10:11:33;25.00;44.60
1329;DHT22;658;48.820;9.354;2022-11-15T10:15:35;25.20;44.40
1329;DHT22;658;48.820;9.354;2022-11-15T10:19:50;25.30;44.20
1329;DHT22;658;48.820;9.354;2022-11-15T10:23:53;25.30;44.10
1329;DHT22;658;48.820;9.354;2022-11-15T10:28:21;25.30;44.20
1329;DHT22;658;48.820;9.354;2022-11-15T10:32:22;25.20;44.30
1329;DHT22;658;48.820;9.354;2022-11-15T10:36:23;25.10;44.60
1329;DHT22;658;48.820;9.354;2022-11-15T10:40:25;25.10;44.50
1329;DHT22;658;48.820;9.354;2022-11-15T10:44:29;25.10;44.60
1329;DHT22;658;48.820;9.354;2022-11-15T10:48:29;25.10;44.70
1329;DHT22;658;48.820;9.354;2022-11-15T10:52:31;25.00;44.60
1329;DHT22;658;48.820;9.354;2022-11-15T10:56:33;25.00;44.80
1329;DHT22;658;48.820;9.354;2022-11-15T11:00:36;24.90;44.90
1329;DHT22;658;48.820;9.354;2022-11-15T11:04:52;24.90;44.90
1329;DHT22;658;48.820;9.354;2022-11-15T11:09:09;24.80;45.10
1329;DHT22;658;48.820;9.354;2022-11-15T11:13:23;24.80;45.20
1329;DHT22;658;48.820;9.354;2022-11-15T11:17:36;24.80;45.30
1329;DHT22;658;48.820;9.354;2022-11-15T11:35:21;24.80;45.60
1329;DHT22;658;48.820;9.354;2022-11-15T11:40:28;24.80;45.60
1329;DHT22;658;48.820;9.354;2022-11-15T11:48:44;24.80;45.40
1329;DHT22;658;48.820;9.354;2022-11-15T11:57:00;24.90;45.20
1329;DHT22;658;48.820;9.354;2022-11-15T12:01:31;24.80;45.20
1329;DHT22;658;48.820;9.354;2022-11-15T12:05:47;24.80;45.30
1329;DHT22;658;48.820;9.354;2022-11-15T12:09:59;24.80;45.20
1329;DHT22;658;48.820;9.354;2022-11-15T12:14:03;24.80;45.30
1329;DHT22;658;48.820;9.354;2022-11-15T12:18:04;24.80;45.30
1329;DHT22;658;48.820;9.354;2022-11-15T12:22:21;25.30;44.60
1329;DHT22;658;48.820;9.354;2022-11-15T12:26:26;25.70;43.50
1329;DHT22;658;48.820;9.354;2022-11-15T12:30:45;25.60;43.90
1329;DHT22;658;48.820;9.354;2022-11-15T12:34:49;25.40;44.40
1329;DHT22;658;48.820;9.354;2022-11-15T12:43:01;24.90;45.60
1329;DHT22;658;48.820;9.354;2022-11-15T12:47:21;24.80;45.70
1329;DHT22;658;48.820;9.354;2022-11-15T12:55:43;24.50;46.10
1329;DHT22;658;48.820;9.354;2022-11-15T12:59:58;24.50;46.20
1329;DHT22;658;48.820;9.354;2022-11-15T13:08:41;24.50;46.30
1329;DHT22;658;48.820;9.354;2022-11-15T13:16:44;24.50;46.30
1329;DHT22;658;48.820;9.354;2022-11-15T13:20:46;24.50;46.30
1329;DHT22;658;48.820;9.354;2022-11-15T13:24:47;24.50;46.30
1329;DHT22;658;48.820;9.354;2022-11-15T13:28:49;24.50;46.40
1329;DHT22;658;48.820;9.354;2022-11-15T13:32:52;24.40;46.30
1329;DHT22;658;48.820;9.354;2022-11-15T13:36:54;24.50;46.40
1329;DHT22;658;48.820;9.354;2022-11-15T13:40:57;24.50;46.40
1329;DHT22;658;48.820;9.354;2022-11-15T13:45:00;24.40;46.40
1329;DHT22;658;48.820;9.354;2022-11-15T13:49:09;24.40;46.50
1329;DHT22;658;48.820;9.354;2022-11-15T13:53:13;24.40;46.50
1329;DHT22;658;48.820;9.354;2022-11-15T13:57:24;24.40;46.50
1329;DHT22;658;48.820;9.354;2022-11-15T14:01:28;24.40;46.50
1329;DHT22;658;48.820;9.354;2022-11-15T14:05:31;24.30;46.70
1329;DHT22;658;48.820;9.354;2022-11-15T14:09:33;24.20;46.80
1329;DHT22;658;48.820;9.354;2022-11-15T14:13:35;24.20;47.10
1329;DHT22;658;48.820;9.354;2022-11-15T14:17:37;24.10;47.30
1329;DHT22;658;48.820;9.354;2022-11-15T14:22:20;24.10;47.40
1329;DHT22;658;48.820;9.354;2022-11-15T14:26:31;24.10;46.60
1329;DHT22;658;48.820;9.354;2022-11-15T14:30:32;23.70;46.30
1329;DHT22;658;48.820;9.354;2022-11-15T14:34:32;23.60;45.80
1329;DHT22;658;48.820;9.354;2022-11-15T14:38:33;23.50;46.00
1329;DHT22;658;48.820;9.354;2022-11-15T14:42:34;23.30;45.90
1329;DHT22;658;48.820;9.354;2022-11-15T14:46:35;23.20;46.10
1329;DHT22;658;48.820;9.354;2022-11-15T14:50:36;23.20;46.50
1329;DHT22;658;48.820;9.354;2022-11-15T14:54:36;23.20;46.80
1329;DHT22;658;48.820;9.354;2022-11-15T14:58:37;23.00;47.10
1329;DHT22;658;48.820;9.354;2022-11-15T15:02:39;22.90;47.60
1329;DHT22;658;48.820;9.354;2022-11-15T15:06:40;23.10;47.50
1329;DHT22;658;48.820;9.354;2022-11-15T15:10:45;23.20;47.40
1329;DHT22;658;48.820;9.354;2022-11-15T15:14:48;23.20;47.40
1329;DHT22;658;48.820;9.354;2022-11-15T15:18:50;23.30;47.30
1329;DHT22;658;48.820;9.354;2022-11-15T15:22:50;23.30;47.30
1329;DHT22;658;48.820;9.354;2022-11-15T15:26:51;23.30;47.30
1329;DHT22;658;48.820;9.354;2022-11-15T15:30:52;23.30;47.30
1329;DHT22;658;48.820;9.354;2022-11-15T15:34:53;23.30;47.80
1329;DHT22;658;48.820;9.354;2022-11-15T15:38:53;23.30;47.90
1329;DHT22;658;48.820;9.354;2022-11-15T15:42:54;23.30;48.00
1329;DHT22;658;48.820;9.354;2022-11-15T15:46:55;23.30;48.50
1329;DHT22;658;48.820;9.354;2022-11-15T15:50:55;23.30;48.50
1329;DHT22;658;48.820;9.354;2022-11-15T15:54:56;23.30;48.90
1329;DHT22;658;48.820;9.354;2022-11-15T15:58:56;23.30;49.30
1329;DHT22;658;48.820;9.354;2022-11-15T16:02:57;23.40;49.50
1329;DHT22;658;48.820;9.354;2022-11-15T16:07:02;23.40;49.40
1329;DHT22;658;48.820;9.354;2022-11-15T16:11:04;23.50;49.50
1329;DHT22;658;48.820;9.354;2022-11-15T16:15:07;23.50;49.20
1329;DHT22;658;48.820;9.354;2022-11-15T16:19:10;23.50;49.40
1329;DHT22;658;48.820;9.354;2022-11-15T16:23:14;23.50;49.40
1329;DHT22;658;48.820;9.354;2022-11-15T16:27:19;23.50;49.20
1329;DHT22;658;48.820;9.354;2022-11-15T16:31:20;23.50;49.20
1329;DHT22;658;48.820;9.354;2022-11-15T16:35:24;23.50;49.20
1329;DHT22;658;48.820;9.354;2022-11-15T16:39:25;23.40;49.10
1329;DHT22;658;48.820;9.354;2022-11-15T16:43:25;23.40;49.00
1329;DHT22;658;48.820;9.354;2022-11-15T16:47:26;23.50;49.10
1329;DHT22;658;48.820;9.354;2022-11-15T16:51:26;23.40;49.00
1329;DHT22;658;48.820;9.354;2022-11-15T16:55:28;23.50;49.00
1329;DHT22;658;48.820;9.354;2022-11-15T16:59:29;23.40;48.90
1329;DHT22;658;48.820;9.354;2022-11-15T17:03:32;23.40;48.80
1329;DHT22;658;48.820;9.354;2022-11-15T17:07:32;23.40;48.70
1329;DHT22;658;48.820;9.354;2022-11-15T17:11:33;23.40;48.70
1329;DHT22;658;48.820;9.354;2022-11-15T17:15:33;23.40;48.80
1329;DHT22;658;48.820;9.354;2022-11-15T17:19:34;23.40;48.60
1329;DHT22;658;48.820;9.354;2022-11-15T17:23:35;23.40;48.60
1329;DHT22;658;48.820;9.354;2022-11-15T17:27:35;23.40;48.60
1329;DHT22;658;48.820;9.354;2022-11-15T17:31:36;23.40;48.70
1329;DHT22;658;48.820;9.354;2022-11-15T17:35:37;23.30;48.50
1329;DHT22;658;48.820;9.354;2022-11-15T17:39:38;23.30;48.50
1329;DHT22;658;48.820;9.354;2022-11-15T17:43:39;23.30;48.60
1329;DHT22;658;48.820;9.354;2022-11-15T17:47:39;23.30;48.60
1329;DHT22;658;48.820;9.354;2022-11-15T17:51:40;23.30;48.70
1329;DHT22;658;48.820;9.354;2022-11-15T17:55:41;23.30;48.70
1329;DHT22;658;48.820;9.354;2022-11-15T17:59:41;23.30;48.70
1329;DHT22;658;48.820;9.354;2022-11-15T18:03:42;23.20;48.60
1329;DHT22;658;48.820;9.354;2022-11-15T18:07:43;23.20;48.50
1329;DHT22;658;48.820;9.354;2022-11-15T18:11:43;23.20;48.50
1329;DHT22;658;48.820;9.354;2022-11-15T18:15:55;23.30;48.40
1329;DHT22;658;48.820;9.354;2022-11-15T18:20:02;23.20;48.30
1329;DHT22;658;48.820;9.354;2022-11-15T18:24:03;23.20;48.30
1329;DHT22;658;48.820;9.354;2022-11-15T18:28:04;23.20;48.30
1329;DHT22;658;48.820;9.354;2022-11-15T18:32:04;23.20;48.50
1329;DHT22;658;48.820;9.354;2022-11-15T18:36:16;23.20;48.70
1329;DHT22;658;48.820;9.354;2022-11-15T18:40:17;23.20;48.70
1329;DHT22;658;48.820;9.354;2022-11-15T18:44:18;23.20;48.80
1329;DHT22;658;48.820;9.354;2022-11-15T18:48:19;23.10;48.90
1329;DHT22;658;48.820;9.354;2022-11-15T18:52:19;23.20;48.90
1329;DHT22;658;48.820;9.354;2022-11-15T18:56:21;23.20;49.00
1329;DHT22;658;48.820;9.354;2022-11-15T19:00:22;23.10;49.00
1329;DHT22;658;48.820;9.354;2022-11-15T19:04:23;23.10;49.00
1329;DHT22;658;48.820;9.354;2022-11-15T19:08:23;23.10;49.00
1329;DHT22;658;48.820;9.354;2022-11-15T19:12:24;23.20;49.00
1329;DHT22;658;48.820;9.354;2022-11-15T19:16:26;23.20;49.00
1329;DHT22;658;48.820;9.354;2022-11-15T19:20:27;23.10;49.00
1329;DHT22;658;48.820;9.354;2022-11-15T19:24:27;23.10;49.00
1329;DHT22;658;48.820;9.354;2022-11-15T19:28:30;23.20;48.90
1329;DHT22;658;48.820;9.354;2022-11-15T19:32:30;23.20;49.00
1329;DHT22;658;48.820;9.354;2022-11-15T19:36:41;23.20;48.90
1329;DHT22;658;48.820;9.354;2022-11-15T19:40:42;23.20;48.80
1329;DHT22;658;48.820;9.354;2022-11-15T19:44:43;23.20;48.90
1329;DHT22;658;48.820;9.354;2022-11-15T19:48:43;23.20;48.80
1329;DHT22;658;48.820;9.354;2022-11-15T19:52:44;23.20;49.00
1329;DHT22;658;48.820;9.354;2022-11-15T19:56:45;23.20;48.90
1329;DHT22;658;48.820;9.354;2022-11-15T20:00:46;23.20;48.90
1329;DHT22;658;48.820;9.354;2022-11-15T20:04:47;23.20;48.90
1329;DHT22;658;48.820;9.354;2022-11-15T20:08:48;23.20;49.10
1329;DHT22;658;48.820;9.354;2022-11-15T20:12:49;23.20;49.10
1329;DHT22;658;48.820;9.354;2022-11-15T20:16:50;23.20;49.20
1329;DHT22;658;48.820;9.354;2022-11-15T20:20:51;23.20;49.20
1329;DHT22;658;48.820;9.354;2022-11-15T20:24:52;23.20;49.00
1329;DHT22;658;48.820;9.354;2022-11-15T20:28:52;23.20;49.00
1329;DHT22;658;48.820;9.354;2022-11-15T20:33:00;23.20;49.00
1329;DHT22;658;48.820;9.354;2022-11-15T20:37:00;23.20;49.00
1329;DHT22;658;48.820;9.354;2022-11-15T20:41:01;23.20;49.20
1329;DHT22;658;48.820;9.354;2022-11-15T20:45:02;23.20;49.10
1329;DHT22;658;48.820;9.354;2022-11-15T20:49:03;23.20;49.10
1329;DHT22;658;48.820;9.354;2022-11-15T20:53:03;23.20;48.90
1329;DHT22;658;48.820;9.354;2022-11-15T20:57:04;23.30;49.00
1329;DHT22;658;48.820;9.354;2022-11-15T21:01:06;23.30;49.00
1329;DHT22;658;48.820;9.354;2022-11-15T21:05:07;23.30;49.10
1329;DHT22;658;48.820;9.354;2022-11-15T21:09:09;23.20;49.00
1329;DHT22;658;48.820;9.354;2022-11-15T21:13:28;23.20;49.10
1329;DHT22;658;48.820;9.354;2022-11-15T21:17:29;23.20;49.10
1329;DHT22;658;48.820;9.354;2022-11-15T21:21:29;23.30;49.20
1329;DHT22;658;48.820;9.354;2022-11-15T21:25:32;23.30;49.10
1329;DHT22;658;48.820;9.354;2022-11-15T21:29:33;23.20;49.10
1329;DHT22;658;48.820;9.354;2022-11-15T21:33:39;23.20;49.10
1329;DHT22;658;48.820;9.354;2022-11-15T21:37:40;23.10;49.20
1329;DHT22;658;48.820;9.354;2022-11-15T21:41:41;23.00;49.30
1329;DHT22;658;48.820;9.354;2022-11-15T21:45:41;23.00;49.50
1329;DHT22;658;48.820;9.354;2022-11-15T21:49:42;22.90;49.50
1329;DHT22;658;48.820;9.354;2022-11-15T21:53:43;22.90;49.70
1329;DHT22;658;48.820;9.354;2022-11-15T21:57:44;22.80;49.70
1329;DHT22;658;48.820;9.354;2022-11-15T22:01:44;22.80;49.70
1329;DHT22;658;48.820;9.354;2022-11-15T22:06:04;22.80;49.80
1329;DHT22;658;48.820;9.354;2022-11-15T22:10:05;22.60;49.80
1329;DHT22;658;48.820;9.354;2022-11-15T22:14:05;22.60;49.80
1329;DHT22;658;48.820;9.354;2022-11-15T22:18:06;22.60;49.80
1329;DHT22;658;48.820;9.354;2022-11-15T22:22:07;22.60;49.90
1329;DHT22;658;48.820;9.354;2022-11-15T22:26:11;22.60;49.80
1329;DHT22;658;48.820;9.354;2022-11-15T22:30:13;22.60;49.80
1329;DHT22;658;48.820;9.354;2022-11-15T22:34:14;22.60;49.80
1329;DHT22;658;48.820;9.354;2022-11-15T22:38:15;22.50;49.80
1329;DHT22;658;48.820;9.354;2022-11-15T22:42:15;22.50;49.80
1329;DHT22;658;48.820;9.354;2022-11-15T22:46:16;22.50;49.80
1329;DHT22;658;48.820;9.354;2022-11-15T22:50:18;22.50;49.80
1329;DHT22;658;48.820;9.354;2022-11-15T22:54:18;22.50;49.80
1329;DHT22;658;48.820;9.354;2022-11-15T22:58:21;22.40;49.80
1329;DHT22;658;48.820;9.354;2022-11-15T23:02:22;22.40;49.80
1329;DHT22;658;48.820;9.354;2022-11-15T23:06:22;22.40;49.80
1329;DHT22;658;48.820;9.354;2022-11-15T23:10:23;22.40;49.90
1329;DHT22;658;48.820;9.354;2022-11-15T23:14:42;22.40;50.00
1329;DHT22;658;48.820;9.354;2022-11-15T23:18:43;22.40;49.90
1329;DHT22;658;48.820;9.354;2022-11-15T23:22:43;22.40;50.00
1329;DHT22;658;48.820;9.354;2022-11-15T23:26:49;22.30;50.00
1329;DHT22;658;48.820;9.354;2022-11-15T23:30:49;22.30;50.00
1329;DHT22;658;48.820;9.354;2022-11-15T23:35:09;22.30;50.10
1329;DHT22;658;48.820;9.354;2022-11-15T23:39:10;22.30;50.10
1329;DHT22;658;48.820;9.354;2022-11-15T23:43:10;22.30;50.10
1329;DHT22;658;48.820;9.354;2022-11-15T23:47:11;22.30;50.10
1329;DHT22;658;48.820;9.354;2022-11-15T23:51:12;22.30;50.10
1329;DHT22;658;48.820;9.354;2022-11-15T23:55:12;22.20;50.10
1329;DHT22;658;48.820;9.354;2022-11-15T23:59:13;22.20;50.10
